Wichita Falls, Texas
Current Conditions -  °F | °C
As of 11:52 AM on Wednesday 28 Jan 2015 (Local Time) from KSPS Reporting Station
Broken Clouds Broken Clouds  
Wind Chill: 70°   Ceiling: 20000
Heat Index: 70°   Visibility: 10mi
Dew Point: 41°   Wind: 20mph
Humidity: 35%   Direction: 230°SW
Pressure: 30.01"   Gusts: NA
Location:  33.91°N, 98.5°W
Report Text: KSPS 281752Z 23017KT 10SM BKN200 21/05 A3001 RMK AO2 SLP155 T02110050 10217 20072 58012
Loading
Personal Weather Stations






























Interactive Weather Map New forecast layout! Learn more

10-Day Weather Forecast

Advertisements
Track Severe Weather on mobile